Agnew, Nebraska
Current Conditions -  °F | °C
As of 7:54 AM on Monday 20 Oct 2014 (Local Time) from KLNK Reporting Station
Clear Clear  
Wind Chill: 39°   Ceiling: Unl
Heat Index: 42°   Visibility: 8mi
Dew Point: 40°   Wind: 5mph
Humidity: 92%   Direction: 360°N
Pressure: 30.08"   Gusts: NA
Location:  40.9964°N, 96.8004°W
Report Text: KLNK 201254Z 36004KT 8SM CLR 06/04 A3008 RMK AO2 SLP187 T00560044
Loading
Personal Weather Stations






























Interactive Weather Map
Tropical Storm Tracking
New forecast layout! Learn more

10-Day Weather Forecast

Advertisements
Track Severe Weather on mobile